To NAV CANADA Home Page Login to a new session Search on AWWS site Feedback and Comments Disclaimer Vers la page française équivalente Tips FAQ What's new on the site To the Forecasts and Observations / NOTAM section To "File a Flight Plan" website Publications and other links Update of the User's profile FIC Telephone Numbers My Weather Data Folder Route Weather Data Regional Weather Data Local Weather Data To the Forecasts and Observations / NOTAM section
Request Generated 08/25/2016 at 02:39:10 UTC . Weather information available at that time is displayed.

METAR/TAF

HAMILTON/ON    

METAR CYHM 250200Z 18008KT 15SM FEW120 BKN170 BKN230 24/18 A3000 RMK
AC2AC4CI1 SLP156 DENSITY ALT 1800FT=
METAR CYHM 250100Z 19006KT 15SM FEW100 SCT160 BKN210 24/17 A3001 RMK
AC1AC2CI2 SLP162 DENSITY ALT 1800FT=
METAR CYHM 250000Z 21008KT 15SM FEW043 SCT100 BKN140 BKN220 25/17
A3002 RMK SC2AC1AC2CI1 SLP166 DENSITY ALT 1900FT=

TAF CYHM 242342Z 2500/2524 21012KT P6SM BKN140 BKN240
FM250300 21010G20KT P6SM -SHRA BKN050 OVC120 PROB30 2503/2506
VRB15G30KT 1SM +TSRA BR BKN008 OVC030CB
FM250600 21010KT P6SM FEW006 BKN020 BKN050
BECMG 2510/2512 27010KT
FM251500 26010KT P6SM SCT015 BKN025
FM251800 24010KT P6SM BKN030 OVC100 PROB30 2520/2524 VRB15G30KT
1SM +TSRA BR BKN015 OVC030CB
RMK NXT FCST BY 250600Z=
Your time UTC time
Weather data provided by Environment Canada and NAV CANADA